Aviation Digital Data Service (ADDS)

Output produced by METARs form (1308 UTC 24 August 2019)
found at http://www.aviationweather.gov/metar/data/
 
METAR text: PAJN 241253Z 11003KT 8SM -RA SCT004 BKN028 OVC033 11/11 A2959 RMK AO2 SLP019 P0003 T01060106
Conditions at: PAJN (JUNEAU , AK, US) observed 1253 UTC 24 August 2019
Temperature: 10.6°C (51°F)
Dewpoint: 10.6°C (51°F) [RH = 100%]
Pressure (altimeter): 29.59 inches Hg (1002.1 mb)
[Sea-level pressure: 1001.9 mb]
Winds: from the ESE (110 degrees) at 3 MPH (3 knots; 1.5 m/s)
Visibility: 8 miles (13 km)
Ceiling: 2800 feet AGL
Clouds: scattered clouds at 400 feet AGL
broken clouds at 2800 feet AGL
overcast cloud deck at 3300 feet AGL
Weather: -RA  (light rain)

METAR text: PAJN 241202Z 11003KT 10SM -RA BKN004 OVC013 11/11 A2958 RMK AO2 P0001 T01060106
Conditions at: PAJN (JUNEAU , AK, US) observed 1202 UTC 24 August 2019
Temperature: 10.6°C (51°F)
Dewpoint: 10.6°C (51°F) [RH = 100%]
Pressure (altimeter): 29.58 inches Hg (1001.8 mb)
Winds: from the ESE (110 degrees) at 3 MPH (3 knots; 1.5 m/s)
Visibility: 10 or more miles (16+ km)
Ceiling: 400 feet AGL
Clouds: broken clouds at 400 feet AGL
overcast cloud deck at 1300 feet AGL
Weather: -RA  (light rain)

METAR text: PAJN 241153Z 13004KT 10SM -RA BKN005 OVC012 11/10 A2959 RMK SLP018 P0002 60008 70033 T01060100 10106 20100 53005 VIA AUTODIAL
Conditions at: PAJN (JUNEAU , AK, US) observed 1153 UTC 24 August 2019
Temperature: 10.6°C (51°F)
Dewpoint: 10.0°C (50°F) [RH = 96%]
Pressure (altimeter): 29.59 inches Hg (1002.1 mb)
[Sea-level pressure: 1001.8 mb]
Winds: from the SE (130 degrees) at 5 MPH (4 knots; 2.1 m/s)
Visibility: 10 or more miles (16+ km)
Ceiling: 500 feet AGL
Clouds: broken clouds at 500 feet AGL
overcast cloud deck at 1200 feet AGL
Weather: -RA  (light rain)

METAR text: PAJN 241109Z 12007KT 10SM -RA BKN005 BKN012 OVC043 11/10 A2958 RMK AO2 P0001 T01060100
Conditions at: PAJN (JUNEAU , AK, US) observed 1109 UTC 24 August 2019
Temperature: 10.6°C (51°F)
Dewpoint: 10.0°C (50°F) [RH = 96%]
Pressure (altimeter): 29.58 inches Hg (1001.8 mb)
Winds: from the ESE (120 degrees) at 8 MPH (7 knots; 3.6 m/s)
Visibility: 10 or more miles (16+ km)
Ceiling: 500 feet AGL
Clouds: broken clouds at 500 feet AGL
broken clouds at 1200 feet AGL
overcast cloud deck at 4300 feet AGL
Weather: -RA  (light rain)

METAR text: PAJN 241053Z 08006KT 10SM -RA BKN004 BKN012 OVC028 11/10 A2958 RMK AO2 SLP017 P0001 T01060100
Conditions at: PAJN (JUNEAU , AK, US) observed 1053 UTC 24 August 2019
Temperature: 10.6°C (51°F)
Dewpoint: 10.0°C (50°F) [RH = 96%]
Pressure (altimeter): 29.58 inches Hg (1001.8 mb)
[Sea-level pressure: 1001.7 mb]
Winds: from the E (80 degrees) at 7 MPH (6 knots; 3.1 m/s)
Visibility: 10 or more miles (16+ km)
Ceiling: 400 feet AGL
Clouds: broken clouds at 400 feet AGL
broken clouds at 1200 feet AGL
overcast cloud deck at 2800 feet AGL
Weather: -RA  (light rain)

METAR text: PAJN 240953Z 00000KT 10SM -RA BKN004 BKN033 OVC075 11/10 A2957 RMK AO2 SLP014 P0002 T01060100
Conditions at: PAJN (JUNEAU , AK, US) observed 0953 UTC 24 August 2019
Temperature: 10.6°C (51°F)
Dewpoint: 10.0°C (50°F) [RH = 96%]
Pressure (altimeter): 29.57 inches Hg (1001.4 mb)
[Sea-level pressure: 1001.4 mb]
Winds: calm
Visibility: 10 or more miles (16+ km)
Ceiling: 400 feet AGL
Clouds: broken clouds at 400 feet AGL
broken clouds at 3300 feet AGL
overcast cloud deck at 7500 feet AGL
Weather: -RA  (light rain)

METAR text: PAJN 240857Z 11004KT 10SM -RA SCT004 BKN036 OVC075 11/10 A2957 RMK AO2 P0000 T01060100
Conditions at: PAJN (JUNEAU , AK, US) observed 0857 UTC 24 August 2019
Temperature: 10.6°C (51°F)
Dewpoint: 10.0°C (50°F) [RH = 96%]
Pressure (altimeter): 29.57 inches Hg (1001.4 mb)
Winds: from the ESE (110 degrees) at 5 MPH (4 knots; 2.1 m/s)
Visibility: 10 or more miles (16+ km)
Ceiling: 3600 feet AGL
Clouds: scattered clouds at 400 feet AGL
broken clouds at 3600 feet AGL
overcast cloud deck at 7500 feet AGL
Weather: -RA  (light rain)

METAR text: PAJN 240853Z 08004KT 10SM -RA BKN004 BKN036 OVC048 11/10 A2957 RMK AO2 SLP013 P0001 60003 T01060100 401220094 51007
Conditions at: PAJN (JUNEAU , AK, US) observed 0853 UTC 24 August 2019
Temperature: 10.6°C (51°F)
Dewpoint: 10.0°C (50°F) [RH = 96%]
Pressure (altimeter): 29.57 inches Hg (1001.4 mb)
[Sea-level pressure: 1001.3 mb]
Winds: from the E (80 degrees) at 5 MPH (4 knots; 2.1 m/s)
Visibility: 10 or more miles (16+ km)
Ceiling: 400 feet AGL
Clouds: broken clouds at 400 feet AGL
broken clouds at 3600 feet AGL
overcast cloud deck at 4800 feet AGL
Weather: -RA  (light rain)

METAR text: PAJN 240801Z 00000KT 10SM -RA BKN004 OVC015 10/10 A2957 RMK AO2 P0000 T01000100
Conditions at: PAJN (JUNEAU , AK, US) observed 0801 UTC 24 August 2019
Temperature: 10.0°C (50°F)
Dewpoint: 10.0°C (50°F) [RH = 100%]
Pressure (altimeter): 29.57 inches Hg (1001.4 mb)
Winds: calm
Visibility: 10 or more miles (16+ km)
Ceiling: 400 feet AGL
Clouds: broken clouds at 400 feet AGL
overcast cloud deck at 1500 feet AGL
Weather: -RA  (light rain)

METAR text: PAJN 240753Z 00000KT 10SM -RA BKN005 OVC015 11/10 A2957 RMK AO2 RAE02B49 SLP012 P0000 T01060100
Conditions at: PAJN (JUNEAU , AK, US) observed 0753 UTC 24 August 2019
Temperature: 10.6°C (51°F)
Dewpoint: 10.0°C (50°F) [RH = 96%]
Pressure (altimeter): 29.57 inches Hg (1001.4 mb)
[Sea-level pressure: 1001.2 mb]
Winds: calm
Visibility: 10 or more miles (16+ km)
Ceiling: 500 feet AGL
Clouds: broken clouds at 500 feet AGL
overcast cloud deck at 1500 feet AGL
Weather: -RA  (light rain)

METAR text: PAJN 240653Z 08008KT 7SM -RA SCT005 BKN015 OVC039 11/10 A2956 RMK AO2 SLP009 P0002 T01060100
Conditions at: PAJN (JUNEAU , AK, US) observed 0653 UTC 24 August 2019
Temperature: 10.6°C (51°F)
Dewpoint: 10.0°C (50°F) [RH = 96%]
Pressure (altimeter): 29.56 inches Hg (1001.1 mb)
[Sea-level pressure: 1000.9 mb]
Winds: from the E (80 degrees) at 9 MPH (8 knots; 4.1 m/s)
Visibility: 7 miles (11 km)
Ceiling: 1500 feet AGL
Clouds: scattered clouds at 500 feet AGL
broken clouds at 1500 feet AGL
overcast cloud deck at 3900 feet AGL
Weather: -RA  (light rain)

METAR text: PAJN 240646Z 10008KT 5SM -RA BR SCT005 BKN010 OVC039 11/10 A2956 RMK AO2 P0001 T01060100
Conditions at: PAJN (JUNEAU , AK, US) observed 0646 UTC 24 August 2019
Temperature: 10.6°C (51°F)
Dewpoint: 10.0°C (50°F) [RH = 96%]
Pressure (altimeter): 29.56 inches Hg (1001.1 mb)
Winds: from the E (100 degrees) at 9 MPH (8 knots; 4.1 m/s)
Visibility: 5 miles ( 8 km)
Ceiling: 1000 feet AGL
Clouds: scattered clouds at 500 feet AGL
broken clouds at 1000 feet AGL
overcast cloud deck at 3900 feet AGL
Weather: -RA BR  (light rain, mist)

METAR text: PAJN 240620Z 10007KT 6SM -RA BR BKN005 BKN023 OVC029 11/10 A2955 RMK AO2 P0000 T01060100
Conditions at: PAJN (JUNEAU , AK, US) observed 0620 UTC 24 August 2019
Temperature: 10.6°C (51°F)
Dewpoint: 10.0°C (50°F) [RH = 96%]
Pressure (altimeter): 29.55 inches Hg (1000.8 mb)
Winds: from the E (100 degrees) at 8 MPH (7 knots; 3.6 m/s)
Visibility: 6 miles (10 km)
Ceiling: 500 feet AGL
Clouds: broken clouds at 500 feet AGL
broken clouds at 2300 feet AGL
overcast cloud deck at 2900 feet AGL
Weather: -RA BR  (light rain, mist)

METAR text: PAJN 240553Z 09005KT 10SM -RA FEW005 BKN011 OVC034 11/10 A2955 RMK SLP006 P0002 60002 T01060100 10122 20106 51010 VIA AUTODIAL
Conditions at: PAJN (JUNEAU , AK, US) observed 0553 UTC 24 August 2019
Temperature: 10.6°C (51°F)
Dewpoint: 10.0°C (50°F) [RH = 96%]
Pressure (altimeter): 29.55 inches Hg (1000.8 mb)
[Sea-level pressure: 1000.6 mb]
Winds: from the E (90 degrees) at 6 MPH (5 knots; 2.6 m/s)
Visibility: 10 or more miles (16+ km)
Ceiling: 1100 feet AGL
Clouds: few clouds at 500 feet AGL
broken clouds at 1100 feet AGL
overcast cloud deck at 3400 feet AGL
Weather: -RA  (light rain)

METAR text: PAJN 240535Z 08005KT 10SM -RA SCT005 BKN011 OVC034 11/10 A2954 RMK AO2 P0002 T01060100
Conditions at: PAJN (JUNEAU , AK, US) observed 0535 UTC 24 August 2019
Temperature: 10.6°C (51°F)
Dewpoint: 10.0°C (50°F) [RH = 96%]
Pressure (altimeter): 29.54 inches Hg (1000.4 mb)
Winds: from the E (80 degrees) at 6 MPH (5 knots; 2.6 m/s)
Visibility: 10 or more miles (16+ km)
Ceiling: 1100 feet AGL
Clouds: scattered clouds at 500 feet AGL
broken clouds at 1100 feet AGL
overcast cloud deck at 3400 feet AGL
Weather: -RA  (light rain)

METAR text: PAJN 240453Z 09005KT 9SM -RA BKN005 OVC010 11/11 A2954 RMK AO2 RAB19 CIG 003V007 SLP003 P0000 T01060106
Conditions at: PAJN (JUNEAU , AK, US) observed 0453 UTC 24 August 2019
Temperature: 10.6°C (51°F)
Dewpoint: 10.6°C (51°F) [RH = 100%]
Pressure (altimeter): 29.54 inches Hg (1000.4 mb)
[Sea-level pressure: 1000.3 mb]
Winds: from the E (90 degrees) at 6 MPH (5 knots; 2.6 m/s)
Visibility: 9 miles (14 km)
Ceiling: 500 feet AGL
Clouds: broken clouds at 500 feet AGL
overcast cloud deck at 1000 feet AGL
Weather: -RA  (light rain)

METAR text: PAJN 240438Z 10005KT 10SM -RA BKN005 OVC037 11/11 A2954 RMK AO2 RAB19 P0000 T01110106
Conditions at: PAJN (JUNEAU , AK, US) observed 0438 UTC 24 August 2019
Temperature: 11.1°C (52°F)
Dewpoint: 10.6°C (51°F) [RH = 97%]
Pressure (altimeter): 29.54 inches Hg (1000.4 mb)
Winds: from the E (100 degrees) at 6 MPH (5 knots; 2.6 m/s)
Visibility: 10 or more miles (16+ km)
Ceiling: 500 feet AGL
Clouds: broken clouds at 500 feet AGL
overcast cloud deck at 3700 feet AGL
Weather: -RA  (light rain)

METAR text: PAJN 240353Z 00000KT 10SM SCT006 BKN011 OVC045 12/11 A2953 RMK AO2 SLP000 P0000 T01170106
Conditions at: PAJN (JUNEAU , AK, US) observed 0353 UTC 24 August 2019
Temperature: 11.7°C (53°F)
Dewpoint: 10.6°C (51°F) [RH = 93%]
Pressure (altimeter): 29.53 inches Hg (1000.1 mb)
[Sea-level pressure: 1000.0 mb]
Winds: calm
Visibility: 10 or more miles (16+ km)
Ceiling: 1100 feet AGL
Clouds: scattered clouds at 600 feet AGL
broken clouds at 1100 feet AGL
overcast cloud deck at 4500 feet AGL
Weather: no significant weather observed at this time

METAR text: PAJN 240342Z 00000KT 10SM SCT006 BKN011 OVC045 11/11 A2953 RMK AO2 P0000 T01110106
Conditions at: PAJN (JUNEAU , AK, US) observed 0342 UTC 24 August 2019
Temperature: 11.1°C (52°F)
Dewpoint: 10.6°C (51°F) [RH = 97%]
Pressure (altimeter): 29.53 inches Hg (1000.1 mb)
Winds: calm
Visibility: 10 or more miles (16+ km)
Ceiling: 1100 feet AGL
Clouds: scattered clouds at 600 feet AGL
broken clouds at 1100 feet AGL
overcast cloud deck at 4500 feet AGL
Weather: no significant weather observed at this time

METAR text: PAJN 240253Z 08003KT 10SM SCT006 BKN016 OVC047 12/11 A2952 RMK AO2 SLP996 60000 T01170106 52008
Conditions at: PAJN (JUNEAU , AK, US) observed 0253 UTC 24 August 2019
Temperature: 11.7°C (53°F)
Dewpoint: 10.6°C (51°F) [RH = 93%]
Pressure (altimeter): 29.52 inches Hg (999.7 mb)
[Sea-level pressure:  999.6 mb]
Winds: from the E (80 degrees) at 3 MPH (3 knots; 1.5 m/s)
Visibility: 10 or more miles (16+ km)
Ceiling: 1600 feet AGL
Clouds: scattered clouds at 600 feet AGL
broken clouds at 1600 feet AGL
overcast cloud deck at 4700 feet AGL
Weather: no significant weather observed at this time

METAR text: PAJN 240234Z 00000KT 10SM SCT007 BKN013 OVC050 12/11 A2952 RMK AO2 T01170111
Conditions at: PAJN (JUNEAU , AK, US) observed 0234 UTC 24 August 2019
Temperature: 11.7°C (53°F)
Dewpoint: 11.1°C (52°F) [RH = 96%]
Pressure (altimeter): 29.52 inches Hg (999.7 mb)
Winds: calm
Visibility: 10 or more miles (16+ km)
Ceiling: 1300 feet AGL
Clouds: scattered clouds at 700 feet AGL
broken clouds at 1300 feet AGL
overcast cloud deck at 5000 feet AGL
Weather: no significant weather observed at this time

METAR text: PAJN 240153Z 00000KT 10SM BKN009 BKN015 OVC048 12/11 A2951 RMK AO2 RAE0057B27E36 SLP993 P0000 T01220106
Conditions at: PAJN (JUNEAU , AK, US) observed 0153 UTC 24 August 2019
Temperature: 12.2°C (54°F)
Dewpoint: 10.6°C (51°F) [RH = 90%]
Pressure (altimeter): 29.51 inches Hg (999.4 mb)
[Sea-level pressure:  999.3 mb]
Winds: calm
Visibility: 10 or more miles (16+ km)
Ceiling: 900 feet AGL
Clouds: broken clouds at 900 feet AGL
broken clouds at 1500 feet AGL
overcast cloud deck at 4800 feet AGL
Weather: no significant weather observed at this time

METAR text: PAJN 240122Z 00000KT 10SM BKN009 BKN016 OVC050 12/11 A2951 RMK AO2 RAE0057 P0000 T01220106
Conditions at: PAJN (JUNEAU , AK, US) observed 0122 UTC 24 August 2019
Temperature: 12.2°C (54°F)
Dewpoint: 10.6°C (51°F) [RH = 90%]
Pressure (altimeter): 29.51 inches Hg (999.4 mb)
Winds: calm
Visibility: 10 or more miles (16+ km)
Ceiling: 900 feet AGL
Clouds: broken clouds at 900 feet AGL
broken clouds at 1600 feet AGL
overcast cloud deck at 5000 feet AGL
Weather: no significant weather observed at this time

METAR text: PAJN 240053Z 00000KT 10SM -RA SCT009 BKN017 OVC047 12/11 A2950 RMK AO2 RAB35 SLP991 SCT V BKN P0000 T01170106
Conditions at: PAJN (JUNEAU , AK, US) observed 0053 UTC 24 August 2019
Temperature: 11.7°C (53°F)
Dewpoint: 10.6°C (51°F) [RH = 93%]
Pressure (altimeter): 29.50 inches Hg (999.1 mb)
[Sea-level pressure:  999.1 mb]
Winds: calm
Visibility: 10 or more miles (16+ km)
Ceiling: 1700 feet AGL
Clouds: scattered clouds at 900 feet AGL
broken clouds at 1700 feet AGL
overcast cloud deck at 4700 feet AGL
Weather: -RA  (light rain)

METAR text: PAJN 240048Z 00000KT 10SM -RA SCT009 BKN017 OVC047 12/11 A2950 RMK AO2 RAB35 P0000
Conditions at: PAJN (JUNEAU , AK, US) observed 0048 UTC 24 August 2019
Temperature: 12.0°C (54°F)
Dewpoint: 11.0°C (52°F) [RH = 94%]
Pressure (altimeter): 29.50 inches Hg (999.1 mb)
Winds: calm
Visibility: 10 or more miles (16+ km)
Ceiling: 1700 feet AGL
Clouds: scattered clouds at 900 feet AGL
broken clouds at 1700 feet AGL
overcast cloud deck at 4700 feet AGL
Weather: -RA  (light rain)

METAR text: PAJN 240015Z 00000KT 10SM FEW003 BKN009 OVC040 12/11 A2950 RMK AO2 T01170106
Conditions at: PAJN (JUNEAU , AK, US) observed 0015 UTC 24 August 2019
Temperature: 11.7°C (53°F)
Dewpoint: 10.6°C (51°F) [RH = 93%]
Pressure (altimeter): 29.50 inches Hg (999.1 mb)
Winds: calm
Visibility: 10 or more miles (16+ km)
Ceiling: 900 feet AGL
Clouds: few clouds at 300 feet AGL
broken clouds at 900 feet AGL
overcast cloud deck at 4000 feet AGL
Weather: no significant weather observed at this time

METAR text: PAJN 232353Z 25003KT 10SM SCT009 OVC040 12/11 A2950 RMK AO2 RAE39 SLP988 P0001 60003 T01170106 10122 20106 53001
Conditions at: PAJN (JUNEAU , AK, US) observed 2353 UTC 23 August 2019
Temperature: 11.7°C (53°F)
Dewpoint: 10.6°C (51°F) [RH = 93%]
Pressure (altimeter): 29.50 inches Hg (999.1 mb)
[Sea-level pressure:  998.8 mb]
Winds: from the WSW (250 degrees) at 3 MPH (3 knots; 1.5 m/s)
Visibility: 10 or more miles (16+ km)
Ceiling: 4000 feet AGL
Clouds: scattered clouds at 900 feet AGL
overcast cloud deck at 4000 feet AGL
Weather: no significant weather observed at this time

METAR text: PAJN 232253Z 23005KT 10SM -RA SCT006 BKN040 OVC055 12/11 A2949 RMK AO2 SLP987 SCT V BKN P0000 T01170106
Conditions at: PAJN (JUNEAU , AK, US) observed 2253 UTC 23 August 2019
Temperature: 11.7°C (53°F)
Dewpoint: 10.6°C (51°F) [RH = 93%]
Pressure (altimeter): 29.49 inches Hg (998.7 mb)
[Sea-level pressure:  998.7 mb]
Winds: from the SW (230 degrees) at 6 MPH (5 knots; 2.6 m/s)
Visibility: 10 or more miles (16+ km)
Ceiling: 4000 feet AGL
Clouds: scattered clouds at 600 feet AGL
broken clouds at 4000 feet AGL
overcast cloud deck at 5500 feet AGL
Weather: -RA  (light rain)

METAR text: PAJN 232153Z 23006KT 10SM -RA SCT007 BKN039 OVC055 12/10 A2949 RMK AO2 SLP986 P0000 T01170100
Conditions at: PAJN (JUNEAU , AK, US) observed 2153 UTC 23 August 2019
Temperature: 11.7°C (53°F)
Dewpoint: 10.0°C (50°F) [RH = 89%]
Pressure (altimeter): 29.49 inches Hg (998.7 mb)
[Sea-level pressure:  998.6 mb]
Winds: from the SW (230 degrees) at 7 MPH (6 knots; 3.1 m/s)
Visibility: 10 or more miles (16+ km)
Ceiling: 3900 feet AGL
Clouds: scattered clouds at 700 feet AGL
broken clouds at 3900 feet AGL
overcast cloud deck at 5500 feet AGL
Weather: -RA  (light rain)

METAR text: PAJN 232053Z 23008KT 10SM -RA SCT008 BKN034 OVC047 12/11 A2949 RMK AO2 SLP987 P0000 60002 T01220106 58005
Conditions at: PAJN (JUNEAU , AK, US) observed 2053 UTC 23 August 2019
Temperature: 12.2°C (54°F)
Dewpoint: 10.6°C (51°F) [RH = 90%]
Pressure (altimeter): 29.49 inches Hg (998.7 mb)
[Sea-level pressure:  998.7 mb]
Winds: from the SW (230 degrees) at 9 MPH (8 knots; 4.1 m/s)
Visibility: 10 or more miles (16+ km)
Ceiling: 3400 feet AGL
Clouds: scattered clouds at 800 feet AGL
broken clouds at 3400 feet AGL
overcast cloud deck at 4700 feet AGL
Weather: -RA  (light rain)

METAR text: PAJN 231953Z 25005KT 10SM -RA SCT007 BKN030 OVC045 12/11 A2950 RMK AO2 SLP989 P0001 T01170106
Conditions at: PAJN (JUNEAU , AK, US) observed 1953 UTC 23 August 2019
Temperature: 11.7°C (53°F)
Dewpoint: 10.6°C (51°F) [RH = 93%]
Pressure (altimeter): 29.50 inches Hg (999.1 mb)
[Sea-level pressure:  998.9 mb]
Winds: from the WSW (250 degrees) at 6 MPH (5 knots; 2.6 m/s)
Visibility: 10 or more miles (16+ km)
Ceiling: 3000 feet AGL
Clouds: scattered clouds at 700 feet AGL
broken clouds at 3000 feet AGL
overcast cloud deck at 4500 feet AGL
Weather: -RA  (light rain)

METAR text: PAJN 231853Z 25003KT 10SM -RA SCT005 BKN030 OVC048 11/10 A2951 RMK AO2 SLP992 P0001 T01110100
Conditions at: PAJN (JUNEAU , AK, US) observed 1853 UTC 23 August 2019
Temperature: 11.1°C (52°F)
Dewpoint: 10.0°C (50°F) [RH = 93%]
Pressure (altimeter): 29.51 inches Hg (999.4 mb)
[Sea-level pressure:  999.2 mb]
Winds: from the WSW (250 degrees) at 3 MPH (3 knots; 1.5 m/s)
Visibility: 10 or more miles (16+ km)
Ceiling: 3000 feet AGL
Clouds: scattered clouds at 500 feet AGL
broken clouds at 3000 feet AGL
overcast cloud deck at 4800 feet AGL
Weather: -RA  (light rain)

METAR text: PAJN 231753Z COR 26004KT 10SM -RA SCT005 BKN033 OVC047 11/09 A2951 RMK AO2 SLP992 P0002 60020 T01060094 10106 20094 55003
Conditions at: PAJN (JUNEAU , AK, US) observed 1753 UTC 23 August 2019
Temperature: 10.6°C (51°F)
Dewpoint: 9.4°C (49°F) [RH = 92%]
Pressure (altimeter): 29.51 inches Hg (999.4 mb)
[Sea-level pressure:  999.2 mb]
Winds: from the W (260 degrees) at 5 MPH (4 knots; 2.1 m/s)
Visibility: 10 or more miles (16+ km)
Ceiling: 3300 feet AGL
Clouds: scattered clouds at 500 feet AGL
broken clouds at 3300 feet AGL
overcast cloud deck at 4700 feet AGL
Weather: -RA  (light rain)

METAR text: PAJN 231738Z 29003KT 10SM -RA SCT005 BKN026 OVC047 11/10 A2950 RMK AO2 SCT V BKN P0001 T01060100
Conditions at: PAJN (JUNEAU , AK, US) observed 1738 UTC 23 August 2019
Temperature: 10.6°C (51°F)
Dewpoint: 10.0°C (50°F) [RH = 96%]
Pressure (altimeter): 29.50 inches Hg (999.1 mb)
Winds: from the WNW (290 degrees) at 3 MPH (3 knots; 1.5 m/s)
Visibility: 10 or more miles (16+ km)
Ceiling: 2600 feet AGL
Clouds: scattered clouds at 500 feet AGL
broken clouds at 2600 feet AGL
overcast cloud deck at 4700 feet AGL
Weather: -RA  (light rain)

METAR text: PAJN 231732Z 25003KT 10SM -RA SCT005 BKN011 OVC047 11/09 A2951 RMK AO2 SCT V BKN P0001 T01060094
Conditions at: PAJN (JUNEAU , AK, US) observed 1732 UTC 23 August 2019
Temperature: 10.6°C (51°F)
Dewpoint: 9.4°C (49°F) [RH = 92%]
Pressure (altimeter): 29.51 inches Hg (999.4 mb)
Winds: from the WSW (250 degrees) at 3 MPH (3 knots; 1.5 m/s)
Visibility: 10 or more miles (16+ km)
Ceiling: 1100 feet AGL
Clouds: scattered clouds at 500 feet AGL
broken clouds at 1100 feet AGL
overcast cloud deck at 4700 feet AGL
Weather: -RA  (light rain)

METAR text: PAJN 231653Z 22003KT 7SM -RA BKN005 BKN015 OVC036 10/09 A2951 RMK SLP992 BKN005 V SCT P0003 T01000089 VIA AUTODIAL
Conditions at: PAJN (JUNEAU , AK, US) observed 1653 UTC 23 August 2019
Temperature: 10.0°C (50°F)
Dewpoint: 8.9°C (48°F) [RH = 93%]
Pressure (altimeter): 29.51 inches Hg (999.4 mb)
[Sea-level pressure:  999.2 mb]
Winds: from the SW (220 degrees) at 3 MPH (3 knots; 1.5 m/s)
Visibility: 7 miles (11 km)
Ceiling: 500 feet AGL
Clouds: broken clouds at 500 feet AGL
broken clouds at 1500 feet AGL
overcast cloud deck at 3600 feet AGL
Weather: -RA  (light rain)

METAR text: PAJN 231639Z 00000KT 7SM -RA BKN005 BKN034 OVC048 10/09 A2951 RMK AO2 BKN005 V SCT P0003 T01000094
Conditions at: PAJN (JUNEAU , AK, US) observed 1639 UTC 23 August 2019
Temperature: 10.0°C (50°F)
Dewpoint: 9.4°C (49°F) [RH = 96%]
Pressure (altimeter): 29.51 inches Hg (999.4 mb)
Winds: calm
Visibility: 7 miles (11 km)
Ceiling: 500 feet AGL
Clouds: broken clouds at 500 feet AGL
broken clouds at 3400 feet AGL
overcast cloud deck at 4800 feet AGL
Weather: -RA  (light rain)

METAR text: PAJN 231553Z 00000KT 7SM -RA SCT004 BKN034 OVC050 10/09 A2952 RMK AO2 SLP995 P0003 T01000089
Conditions at: PAJN (JUNEAU , AK, US) observed 1553 UTC 23 August 2019
Temperature: 10.0°C (50°F)
Dewpoint: 8.9°C (48°F) [RH = 93%]
Pressure (altimeter): 29.52 inches Hg (999.7 mb)
[Sea-level pressure:  999.5 mb]
Winds: calm
Visibility: 7 miles (11 km)
Ceiling: 3400 feet AGL
Clouds: scattered clouds at 400 feet AGL
broken clouds at 3400 feet AGL
overcast cloud deck at 5000 feet AGL
Weather: -RA  (light rain)

METAR text: PAJN 231453Z 00000KT 10SM -RA FEW007 BKN037 OVC055 09/09 A2952 RMK AO2 SLP995 P0002 60012 T00940089 55001
Conditions at: PAJN (JUNEAU , AK, US) observed 1453 UTC 23 August 2019
Temperature: 9.4°C (49°F)
Dewpoint: 8.9°C (48°F) [RH = 97%]
Pressure (altimeter): 29.52 inches Hg (999.7 mb)
[Sea-level pressure:  999.5 mb]
Winds: calm
Visibility: 10 or more miles (16+ km)
Ceiling: 3700 feet AGL
Clouds: few clouds at 700 feet AGL
broken clouds at 3700 feet AGL
overcast cloud deck at 5500 feet AGL
Weather: -RA  (light rain)

METAR text: PAJN 231353Z 08005KT 10SM -RA FEW007 BKN037 OVC055 10/09 A2951 RMK SLP994 P0006 T01000089 VIA AUTODIAL
Conditions at: PAJN (JUNEAU , AK, US) observed 1353 UTC 23 August 2019
Temperature: 10.0°C (50°F)
Dewpoint: 8.9°C (48°F) [RH = 93%]
Pressure (altimeter): 29.51 inches Hg (999.4 mb)
[Sea-level pressure:  999.4 mb]
Winds: from the E (80 degrees) at 6 MPH (5 knots; 2.6 m/s)
Visibility: 10 or more miles (16+ km)
Ceiling: 3700 feet AGL
Clouds: few clouds at 700 feet AGL
broken clouds at 3700 feet AGL
overcast cloud deck at 5500 feet AGL
Weather: -RA  (light rain)

METAR text: PAJN 231253Z 07006KT 10SM -RA FEW007 BKN039 OVC055 09/08 A2952 RMK AO2 SLP995 P0004 T00940083
Conditions at: PAJN (JUNEAU , AK, US) observed 1253 UTC 23 August 2019
Temperature: 9.4°C (49°F)
Dewpoint: 8.3°C (47°F) [RH = 93%]
Pressure (altimeter): 29.52 inches Hg (999.7 mb)
[Sea-level pressure:  999.5 mb]
Winds: from the ENE (70 degrees) at 7 MPH (6 knots; 3.1 m/s)
Visibility: 10 or more miles (16+ km)
Ceiling: 3900 feet AGL
Clouds: few clouds at 700 feet AGL
broken clouds at 3900 feet AGL
overcast cloud deck at 5500 feet AGL
Weather: -RA  (light rain)

METAR text: PAJN 231153Z 08009KT 10SM -RA FEW007 BKN042 OVC060 09/08 A2952 RMK SLP996 P0004 60044 70090 T00940083 10100 20094 58013 VIA AUTODIAL
Conditions at: PAJN (JUNEAU , AK, US) observed 1153 UTC 23 August 2019
Temperature: 9.4°C (49°F)
Dewpoint: 8.3°C (47°F) [RH = 93%]
Pressure (altimeter): 29.52 inches Hg (999.7 mb)
[Sea-level pressure:  999.6 mb]
Winds: from the E (80 degrees) at 10 MPH (9 knots; 4.6 m/s)
Visibility: 10 or more miles (16+ km)
Ceiling: 4200 feet AGL
Clouds: few clouds at 700 feet AGL
broken clouds at 4200 feet AGL
overcast cloud deck at 6000 feet AGL
Weather: -RA  (light rain)

METAR text: PAJN 231053Z 07006KT 10SM -RA FEW007 BKN041 OVC055 09/08 A2954 RMK SLP002 P0004 T00940083 VIA AUTODIAL
Conditions at: PAJN (JUNEAU , AK, US) observed 1053 UTC 23 August 2019
Temperature: 9.4°C (49°F)
Dewpoint: 8.3°C (47°F) [RH = 93%]
Pressure (altimeter): 29.54 inches Hg (1000.4 mb)
[Sea-level pressure: 1000.2 mb]
Winds: from the ENE (70 degrees) at 7 MPH (6 knots; 3.1 m/s)
Visibility: 10 or more miles (16+ km)
Ceiling: 4100 feet AGL
Clouds: few clouds at 700 feet AGL
broken clouds at 4100 feet AGL
overcast cloud deck at 5500 feet AGL
Weather: -RA  (light rain)

METAR text: PAJN 231051Z 07007KT 10SM -RA FEW007 BKN041 OVC055 09/08 A2954 RMK P0004 VIA AUTODIAL
Conditions at: PAJN (JUNEAU , AK, US) observed 1051 UTC 23 August 2019
Temperature: 9.0°C (48°F)
Dewpoint: 8.0°C (46°F) [RH = 93%]
Pressure (altimeter): 29.54 inches Hg (1000.4 mb)
Winds: from the ENE (70 degrees) at 8 MPH (7 knots; 3.6 m/s)
Visibility: 10 or more miles (16+ km)
Ceiling: 4100 feet AGL
Clouds: few clouds at 700 feet AGL
broken clouds at 4100 feet AGL
overcast cloud deck at 5500 feet AGL
Weather: -RA  (light rain)

METAR text: PAJN 230953Z COR 08006KT 8SM RA FEW007 BKN055 OVC070 09/08 A2955 RMK AO2 SLP006 P0008 T00940083
Conditions at: PAJN (JUNEAU , AK, US) observed 0953 UTC 23 August 2019
Temperature: 9.4°C (49°F)
Dewpoint: 8.3°C (47°F) [RH = 93%]
Pressure (altimeter): 29.55 inches Hg (1000.8 mb)
[Sea-level pressure: 1000.6 mb]
Winds: from the E (80 degrees) at 7 MPH (6 knots; 3.1 m/s)
Visibility: 8 miles (13 km)
Ceiling: 5500 feet AGL
Clouds: few clouds at 700 feet AGL
broken clouds at 5500 feet AGL
overcast cloud deck at 7000 feet AGL
Weather: RA  (moderate rain)

METAR text: PAJN 230853Z 09007KT 6SM RA BR FEW007 OVC045 09/08 A2956 RMK AO2 SLP010 P0018 60028 T00940083 401280094 56015
Conditions at: PAJN (JUNEAU , AK, US) observed 0853 UTC 23 August 2019
Temperature: 9.4°C (49°F)
Dewpoint: 8.3°C (47°F) [RH = 93%]
Pressure (altimeter): 29.56 inches Hg (1001.1 mb)
[Sea-level pressure: 1001.0 mb]
Winds: from the E (90 degrees) at 8 MPH (7 knots; 3.6 m/s)
Visibility: 6 miles (10 km)
Ceiling: 4500 feet AGL
Clouds: few clouds at 700 feet AGL
overcast cloud deck at 4500 feet AGL
Weather: RA BR  (moderate rain, mist)

METAR text: PAJN 230753Z 08005KT 7SM RA FEW008 OVC049 09/08 A2958 RMK AO2 SLP015 P0007 T00940083
Conditions at: PAJN (JUNEAU , AK, US) observed 0753 UTC 23 August 2019
Temperature: 9.4°C (49°F)
Dewpoint: 8.3°C (47°F) [RH = 93%]
Pressure (altimeter): 29.58 inches Hg (1001.8 mb)
[Sea-level pressure: 1001.5 mb]
Winds: from the E (80 degrees) at 6 MPH (5 knots; 2.6 m/s)
Visibility: 7 miles (11 km)
Ceiling: 4900 feet AGL
Clouds: few clouds at 800 feet AGL
overcast cloud deck at 4900 feet AGL
Weather: RA  (moderate rain)

METAR text: PAJN 230653Z 07009KT 8SM RA FEW008 OVC050 09/09 A2958 RMK AO2 SLP017 P0003 T00940089
Conditions at: PAJN (JUNEAU , AK, US) observed 0653 UTC 23 August 2019
Temperature: 9.4°C (49°F)
Dewpoint: 8.9°C (48°F) [RH = 97%]
Pressure (altimeter): 29.58 inches Hg (1001.8 mb)
[Sea-level pressure: 1001.7 mb]
Winds: from the ENE (70 degrees) at 10 MPH (9 knots; 4.6 m/s)
Visibility: 8 miles (13 km)
Ceiling: 5000 feet AGL
Clouds: few clouds at 800 feet AGL
overcast cloud deck at 5000 feet AGL
Weather: RA  (moderate rain)

METAR text: PAJN 230553Z 12010KT 9SM -RA FEW005 OVC050 09/09 A2960 RMK SLP025 P0011 60033 T00940089 10106 20094 56025 VIA AUTODIAL
Conditions at: PAJN (JUNEAU , AK, US) observed 0553 UTC 23 August 2019
Temperature: 9.4°C (49°F)
Dewpoint: 8.9°C (48°F) [RH = 97%]
Pressure (altimeter): 29.60 inches Hg (1002.5 mb)
[Sea-level pressure: 1002.5 mb]
Winds: from the ESE (120 degrees) at 12 MPH (10 knots; 5.1 m/s)
Visibility: 9 miles (14 km)
Ceiling: 5000 feet AGL
Clouds: few clouds at 500 feet AGL
overcast cloud deck at 5000 feet AGL
Weather: -RA  (light rain)

METAR text: PAJN 230453Z 08008KT 7SM RA FEW007 OVC050 10/09 A2963 RMK AO2 SLP033 P0007 T01000089
Conditions at: PAJN (JUNEAU , AK, US) observed 0453 UTC 23 August 2019
Temperature: 10.0°C (50°F)
Dewpoint: 8.9°C (48°F) [RH = 93%]
Pressure (altimeter): 29.63 inches Hg (1003.5 mb)
[Sea-level pressure: 1003.3 mb]
Winds: from the E (80 degrees) at 9 MPH (8 knots; 4.1 m/s)
Visibility: 7 miles (11 km)
Ceiling: 5000 feet AGL
Clouds: few clouds at 700 feet AGL
overcast cloud deck at 5000 feet AGL
Weather: RA  (moderate rain)

METAR text: PAJN 230353Z 11013KT 10SM -RA FEW008 OVC060 10/09 A2964 RMK AO2 SLP036 P0008 T01000089
Conditions at: PAJN (JUNEAU , AK, US) observed 0353 UTC 23 August 2019
Temperature: 10.0°C (50°F)
Dewpoint: 8.9°C (48°F) [RH = 93%]
Pressure (altimeter): 29.64 inches Hg (1003.8 mb)
[Sea-level pressure: 1003.6 mb]
Winds: from the ESE (110 degrees) at 15 MPH (13 knots; 6.7 m/s)
Visibility: 10 or more miles (16+ km)
Ceiling: 6000 feet AGL
Clouds: few clouds at 800 feet AGL
overcast cloud deck at 6000 feet AGL
Weather: -RA  (light rain)

METAR text: PAJN 230253Z 11013KT 6SM RA BR FEW003 FEW044 OVC055 10/09 A2968 RMK SLP050 P0004 60007 T01000089 56036 VIA AUTODIAL
Conditions at: PAJN (JUNEAU , AK, US) observed 0253 UTC 23 August 2019
Temperature: 10.0°C (50°F)
Dewpoint: 8.9°C (48°F) [RH = 93%]
Pressure (altimeter): 29.68 inches Hg (1005.2 mb)
[Sea-level pressure: 1005.0 mb]
Winds: from the ESE (110 degrees) at 15 MPH (13 knots; 6.7 m/s)
Visibility: 6 miles (10 km)
Ceiling: 5500 feet AGL
Clouds: few clouds at 300 feet AGL
few clouds at 4400 feet AGL
overcast cloud deck at 5500 feet AGL
Weather: RA BR  (moderate rain, mist)

METAR text: PAJN 230153Z 11014KT 6SM -RA BR FEW006 BKN049 OVC060 10/09 A2971 RMK AO2 SLP061 P0002 T01000089
Conditions at: PAJN (JUNEAU , AK, US) observed 0153 UTC 23 August 2019
Temperature: 10.0°C (50°F)
Dewpoint: 8.9°C (48°F) [RH = 93%]
Pressure (altimeter): 29.71 inches Hg (1006.2 mb)
[Sea-level pressure: 1006.1 mb]
Winds: from the ESE (110 degrees) at 16 MPH (14 knots; 7.2 m/s)
Visibility: 6 miles (10 km)
Ceiling: 4900 feet AGL
Clouds: few clouds at 600 feet AGL
broken clouds at 4900 feet AGL
overcast cloud deck at 6000 feet AGL
Weather: -RA BR  (light rain, mist)

Forecast for: PAJN (JUNEAU , AK, US)
Text: PAJN 241143Z 2412/2512 VRB03KT P6SM -RA BKN004 BKN012 OVC025
Forecast period: 1200 to 1600 UTC 24 August 2019
Forecast type: FROM: standard forecast or significant change
Winds: variable direction winds at 3 MPH (3 knots; 1.5 m/s)
Visibility: 6 or more miles 10+ km)
Ceiling: 400 feet AGL
Clouds: broken clouds at 400 feet AGL
broken clouds at 1200 feet AGL
overcast cloud deck at 2500 feet AGL
Weather: -RA  (light rain)
Text: FM241600 12007KT 5SM -SHRA BR BKN008 BKN012 OVC025
Forecast period: 1600 to 2000 UTC 24 August 2019
Forecast type: FROM: standard forecast or significant change
Winds: from the ESE (120 degrees) at 8 MPH (7 knots; 3.6 m/s)
Visibility: 5 miles (8 km)
Ceiling: 800 feet AGL
Clouds: broken clouds at 800 feet AGL
broken clouds at 1200 feet AGL
overcast cloud deck at 2500 feet AGL
Weather: -SHRA BR  (light rain showers, mist)
Text: FM242000 10008KT P6SM -SHRA SCT007 BKN015 OVC025
Forecast period: 2000 to 2200 UTC 24 August 2019
Forecast type: FROM: standard forecast or significant change
Winds: from the E (100 degrees) at 9 MPH (8 knots; 4.1 m/s)
Visibility: 6 or more miles 10+ km)
Ceiling: 1500 feet AGL
Clouds: scattered clouds at 700 feet AGL
broken clouds at 1500 feet AGL
overcast cloud deck at 2500 feet AGL
Weather: -SHRA  (light rain showers)
Text: FM242200 10009KT P6SM -SHRA SCT015 BKN025 OVC035
Forecast period: 2200 UTC 24 August 2019 to 1200 UTC 25 August 2019
Forecast type: FROM: standard forecast or significant change
Winds: from the E (100 degrees) at 10 MPH (9 knots; 4.6 m/s)
Visibility: 6 or more miles 10+ km)
Ceiling: 2500 feet AGL
Clouds: scattered clouds at 1500 feet AGL
broken clouds at 2500 feet AGL
overcast cloud deck at 3500 feet AGL
Weather: -SHRA  (light rain showers)